KPNC/PNC METAR and TAF weather

Enter ICAO airport designator
Station Type Date Time Source
KPNC METAR 2021/01/27 13:53 UTC NOAA

KPNC 271353Z AUTO 34008KT 10SM OVC018 M02/M06 A3029 RMK AO2 SLP265 T10171061


Station Type Date Time Source
KPNC Decoded METAR 2021/01/27 13:53 UTC NOAA

PONCA CITY MUNICIPAL AIRPORT, OK, United States (KPNC) 36-44N 97-06W 308M
Jan 27, 2021 - 08:53 AM EST / 2021.01.27 1353 UTC
Wind: from the NNW (340 degrees) at 9 MPH (8 KT):0
Visibility: 10 mile(s):0
Sky conditions: overcast
Temperature: 28.9 F (-1.7 C)
Windchill: 21 F (-6 C):1
Dew Point: 21.0 F (-6.1 C)
Relative Humidity: 71%
Pressure (altimeter): 30.29 in. Hg (1025 hPa)
ob: KPNC 271353Z AUTO 34008KT 10SM OVC018 M02/M06 A3029 RMK AO2 SLP265 T10171061
cycle: 14

Station Type Date Time Source
KPNC TAF 2021/01/27 12:27 UTC NOAA

TAF KPNC 271124Z 2712/2812 35006KT P6SM OVC015
FM271500 34011KT P6SM BKN025
FM272000 34009KT P6SM SCT030
FM280500 08005KT P6SM SKC

Example: see airport list